Echapora, Brazil
Current Conditions -  °F | °C
As of 8:00 PM on Monday 26 Jan 2015 (Local Time) from SBBU Reporting Station
Thunderstorm Thunderstorm  
Wind Chill: 70°   Ceiling: Unl
Heat Index: 70°   Visibility: 1.2mi
Dew Point: 70°   Wind: 22mph
Humidity: 100%   Direction: 70°ENE
Pressure: NA   Gusts: 35mph
Location:  22.43°S, 50.2°W
Report Text: SBBU 262200Z 07019G30KT 2000 +TSRA BR SCT030 FEW040CB 21/21 Q1014
Loading
Personal Weather Stations






























Interactive Weather Map New forecast layout! Learn more

10-Day Weather Forecast

Advertisements
Track Severe Weather on mobile